sensor_id;sensor_type;location;lat;lon;timestamp;temperature;humidity
61000;SHT31;46879;45.658;11.814;2024-02-28T00:02:00;17.49;71.24
61000;SHT31;46879;45.658;11.814;2024-02-28T00:07:00;17.49;71.02
61000;SHT31;46879;45.658;11.814;2024-02-28T00:12:01;17.47;71.13
61000;SHT31;46879;45.658;11.814;2024-02-28T00:17:01;17.47;71.18
61000;SHT31;46879;45.658;11.814;2024-02-28T00:22:02;17.50;71.15
61000;SHT31;46879;45.658;11.814;2024-02-28T00:27:03;17.49;71.27
61000;SHT31;46879;45.658;11.814;2024-02-28T00:32:03;17.50;71.23
61000;SHT31;46879;45.658;11.814;2024-02-28T00:37:04;17.49;71.36
61000;SHT31;46879;45.658;11.814;2024-02-28T00:42:05;17.49;71.08
61000;SHT31;46879;45.658;11.814;2024-02-28T00:47:05;17.47;71.03
61000;SHT31;46879;45.658;11.814;2024-02-28T00:52:06;17.49;71.05
61000;SHT31;46879;45.658;11.814;2024-02-28T00:57:07;17.44;71.12
61000;SHT31;46879;45.658;11.814;2024-02-28T01:02:07;17.47;71.04
61000;SHT31;46879;45.658;11.814;2024-02-28T01:07:08;17.47;70.98
61000;SHT31;46879;45.658;11.814;2024-02-28T01:12:08;17.49;71.01
61000;SHT31;46879;45.658;11.814;2024-02-28T01:17:09;17.49;70.96
61000;SHT31;46879;45.658;11.814;2024-02-28T01:22:09;17.47;71.07
61000;SHT31;46879;45.658;11.814;2024-02-28T01:27:10;17.47;71.14
61000;SHT31;46879;45.658;11.814;2024-02-28T01:32:10;17.47;71.13
61000;SHT31;46879;45.658;11.814;2024-02-28T01:37:11;17.46;71.02
61000;SHT31;46879;45.658;11.814;2024-02-28T01:42:14;17.46;70.94
61000;SHT31;46879;45.658;11.814;2024-02-28T01:47:15;17.46;71.08
61000;SHT31;46879;45.658;11.814;2024-02-28T01:52:17;17.49;71.03
61000;SHT31;46879;45.658;11.814;2024-02-28T01:57:18;17.46;70.98
61000;SHT31;46879;45.658;11.814;2024-02-28T02:02:18;17.46;70.98
61000;SHT31;46879;45.658;11.814;2024-02-28T02:07:19;17.47;70.99
61000;SHT31;46879;45.658;11.814;2024-02-28T02:12:21;17.43;71.13
61000;SHT31;46879;45.658;11.814;2024-02-28T02:17:22;17.47;70.95
61000;SHT31;46879;45.658;11.814;2024-02-28T02:22:23;17.43;70.96
61000;SHT31;46879;45.658;11.814;2024-02-28T02:27:26;17.43;71.02
61000;SHT31;46879;45.658;11.814;2024-02-28T02:32:27;17.44;70.92
61000;SHT31;46879;45.658;11.814;2024-02-28T02:37:28;17.44;70.94
61000;SHT31;46879;45.658;11.814;2024-02-28T02:42:29;17.42;71.02
61000;SHT31;46879;45.658;11.814;2024-02-28T02:47:30;17.42;70.87
61000;SHT31;46879;45.658;11.814;2024-02-28T02:52:31;17.43;71.08
61000;SHT31;46879;45.658;11.814;2024-02-28T02:57:32;17.42;71.08
61000;SHT31;46879;45.658;11.814;2024-02-28T03:02:32;17.44;71.18
61000;SHT31;46879;45.658;11.814;2024-02-28T03:07:33;17.43;71.15
61000;SHT31;46879;45.658;11.814;2024-02-28T03:12:34;17.42;71.32
61000;SHT31;46879;45.658;11.814;2024-02-28T03:17:34;17.42;71.24
61000;SHT31;46879;45.658;11.814;2024-02-28T03:22:35;17.40;71.29
61000;SHT31;46879;45.658;11.814;2024-02-28T03:27:35;17.43;71.23
61000;SHT31;46879;45.658;11.814;2024-02-28T03:32:36;17.42;71.28
61000;SHT31;46879;45.658;11.814;2024-02-28T03:37:36;17.42;71.31
61000;SHT31;46879;45.658;11.814;2024-02-28T03:42:37;17.42;71.42
61000;SHT31;46879;45.658;11.814;2024-02-28T03:47:38;17.39;71.50
61000;SHT31;46879;45.658;11.814;2024-02-28T03:52:39;17.43;71.39
61000;SHT31;46879;45.658;11.814;2024-02-28T03:57:39;17.44;71.41
61000;SHT31;46879;45.658;11.814;2024-02-28T04:02:40;17.40;71.46
61000;SHT31;46879;45.658;11.814;2024-02-28T04:07:40;17.40;71.45
61000;SHT31;46879;45.658;11.814;2024-02-28T04:12:43;17.42;71.53
61000;SHT31;46879;45.658;11.814;2024-02-28T04:17:44;17.42;71.42
61000;SHT31;46879;45.658;11.814;2024-02-28T04:22:45;17.42;71.60
61000;SHT31;46879;45.658;11.814;2024-02-28T04:27:45;17.42;71.56
61000;SHT31;46879;45.658;11.814;2024-02-28T04:32:47;17.43;71.58
61000;SHT31;46879;45.658;11.814;2024-02-28T04:37:48;17.42;71.63
61000;SHT31;46879;45.658;11.814;2024-02-28T04:42:48;17.42;71.62
61000;SHT31;46879;45.658;11.814;2024-02-28T04:47:49;17.42;71.70
61000;SHT31;46879;45.658;11.814;2024-02-28T04:52:52;17.39;72.08
61000;SHT31;46879;45.658;11.814;2024-02-28T04:57:52;17.39;72.10
61000;SHT31;46879;45.658;11.814;2024-02-28T05:02:53;17.42;72.05
61000;SHT31;46879;45.658;11.814;2024-02-28T05:07:53;17.42;71.82
61000;SHT31;46879;45.658;11.814;2024-02-28T05:12:54;17.40;72.08
61000;SHT31;46879;45.658;11.814;2024-02-28T05:17:54;17.43;72.09
61000;SHT31;46879;45.658;11.814;2024-02-28T05:22:55;17.42;71.90
61000;SHT31;46879;45.658;11.814;2024-02-28T05:27:56;17.40;71.94
61000;SHT31;46879;45.658;11.814;2024-02-28T05:32:56;17.37;71.95
61000;SHT31;46879;45.658;11.814;2024-02-28T05:37:57;17.40;72.00
61000;SHT31;46879;45.658;11.814;2024-02-28T05:42:57;17.42;72.14
61000;SHT31;46879;45.658;11.814;2024-02-28T05:47:58;17.40;72.10
61000;SHT31;46879;45.658;11.814;2024-02-28T05:52:59;17.40;71.86
61000;SHT31;46879;45.658;11.814;2024-02-28T05:57:59;17.39;72.15
61000;SHT31;46879;45.658;11.814;2024-02-28T06:03:01;17.42;72.05
61000;SHT31;46879;45.658;11.814;2024-02-28T06:08:02;17.40;72.09
61000;SHT31;46879;45.658;11.814;2024-02-28T06:13:02;17.39;72.34
61000;SHT31;46879;45.658;11.814;2024-02-28T06:18:03;17.40;72.36
61000;SHT31;46879;45.658;11.814;2024-02-28T06:23:04;17.40;72.64
61000;SHT31;46879;45.658;11.814;2024-02-28T06:28:05;17.40;72.46
61000;SHT31;46879;45.658;11.814;2024-02-28T06:33:07;17.39;72.58
61000;SHT31;46879;45.658;11.814;2024-02-28T06:38:09;17.40;72.53
61000;SHT31;46879;45.658;11.814;2024-02-28T06:43:09;17.37;72.47
61000;SHT31;46879;45.658;11.814;2024-02-28T06:48:10;17.42;72.30
61000;SHT31;46879;45.658;11.814;2024-02-28T06:53:11;17.39;72.21
61000;SHT31;46879;45.658;11.814;2024-02-28T06:58:11;17.39;72.23
61000;SHT31;46879;45.658;11.814;2024-02-28T07:03:12;17.42;72.24
61000;SHT31;46879;45.658;11.814;2024-02-28T07:08:12;17.39;72.25
61000;SHT31;46879;45.658;11.814;2024-02-28T07:13:13;17.40;72.83
61000;SHT31;46879;45.658;11.814;2024-02-28T07:18:14;17.40;72.28
61000;SHT31;46879;45.658;11.814;2024-02-28T07:23:15;17.44;72.09
61000;SHT31;46879;45.658;11.814;2024-02-28T07:28:15;17.43;72.04
61000;SHT31;46879;45.658;11.814;2024-02-28T07:33:16;17.43;71.91
61000;SHT31;46879;45.658;11.814;2024-02-28T07:38:16;17.46;71.76
61000;SHT31;46879;45.658;11.814;2024-02-28T07:43:20;17.44;71.66
61000;SHT31;46879;45.658;11.814;2024-02-28T07:48:21;17.43;71.67
61000;SHT31;46879;45.658;11.814;2024-02-28T07:53:22;17.44;71.54
61000;SHT31;46879;45.658;11.814;2024-02-28T07:58:23;17.43;71.62
61000;SHT31;46879;45.658;11.814;2024-02-28T08:03:23;17.46;71.53
61000;SHT31;46879;45.658;11.814;2024-02-28T08:08:24;17.46;71.46
61000;SHT31;46879;45.658;11.814;2024-02-28T08:13:24;17.46;71.24
61000;SHT31;46879;45.658;11.814;2024-02-28T08:18:28;17.43;71.17
61000;SHT31;46879;45.658;11.814;2024-02-28T08:23:30;17.44;71.09
61000;SHT31;46879;45.658;11.814;2024-02-28T08:28:31;17.43;70.99
61000;SHT31;46879;45.658;11.814;2024-02-28T08:33:31;17.44;70.90
61000;SHT31;46879;45.658;11.814;2024-02-28T08:38:32;17.44;70.84
61000;SHT31;46879;45.658;11.814;2024-02-28T08:43:42;17.44;70.68
61000;SHT31;46879;45.658;11.814;2024-02-28T08:48:42;17.44;70.76
61000;SHT31;46879;45.658;11.814;2024-02-28T08:53:43;17.44;70.71
61000;SHT31;46879;45.658;11.814;2024-02-28T08:58:44;17.46;70.69
61000;SHT31;46879;45.658;11.814;2024-02-28T09:03:45;17.49;70.60
61000;SHT31;46879;45.658;11.814;2024-02-28T09:08:45;17.44;70.57
61000;SHT31;46879;45.658;11.814;2024-02-28T09:13:46;17.44;70.44
61000;SHT31;46879;45.658;11.814;2024-02-28T09:18:46;17.44;70.48
61000;SHT31;46879;45.658;11.814;2024-02-28T09:23:47;17.46;70.42
61000;SHT31;46879;45.658;11.814;2024-02-28T09:28:47;17.44;70.42
61000;SHT31;46879;45.658;11.814;2024-02-28T09:33:48;17.43;70.45
61000;SHT31;46879;45.658;11.814;2024-02-28T09:38:49;17.44;70.40
61000;SHT31;46879;45.658;11.814;2024-02-28T09:43:49;17.44;70.31
61000;SHT31;46879;45.658;11.814;2024-02-28T09:48:50;17.43;70.34
61000;SHT31;46879;45.658;11.814;2024-02-28T09:53:52;17.43;70.31
61000;SHT31;46879;45.658;11.814;2024-02-28T09:58:54;17.42;70.30
61000;SHT31;46879;45.658;11.814;2024-02-28T10:03:55;17.42;70.30
61000;SHT31;46879;45.658;11.814;2024-02-28T10:08:56;17.44;70.21
61000;SHT31;46879;45.658;11.814;2024-02-28T10:13:57;17.44;70.21
61000;SHT31;46879;45.658;11.814;2024-02-28T10:18:59;17.44;70.15
61000;SHT31;46879;45.658;11.814;2024-02-28T10:24:00;17.44;70.21
61000;SHT31;46879;45.658;11.814;2024-02-28T10:29:00;17.43;70.10
61000;SHT31;46879;45.658;11.814;2024-02-28T10:34:04;17.43;70.11
61000;SHT31;46879;45.658;11.814;2024-02-28T10:39:04;17.42;70.04
61000;SHT31;46879;45.658;11.814;2024-02-28T10:44:08;17.44;70.09
61000;SHT31;46879;45.658;11.814;2024-02-28T10:49:10;17.44;70.00
61000;SHT31;46879;45.658;11.814;2024-02-28T10:54:12;17.46;70.00
61000;SHT31;46879;45.658;11.814;2024-02-28T10:59:13;17.44;69.98
61000;SHT31;46879;45.658;11.814;2024-02-28T11:04:16;17.44;70.02
61000;SHT31;46879;45.658;11.814;2024-02-28T11:09:26;17.43;70.00
61000;SHT31;46879;45.658;11.814;2024-02-28T11:14:28;17.44;69.93
61000;SHT31;46879;45.658;11.814;2024-02-28T11:19:32;17.43;69.91
61000;SHT31;46879;45.658;11.814;2024-02-28T11:24:34;17.43;69.96
61000;SHT31;46879;45.658;11.814;2024-02-28T11:29:36;17.44;69.86
61000;SHT31;46879;45.658;11.814;2024-02-28T11:34:37;17.44;69.87
61000;SHT31;46879;45.658;11.814;2024-02-28T11:39:39;17.40;69.92
61000;SHT31;46879;45.658;11.814;2024-02-28T11:44:40;17.43;69.86
61000;SHT31;46879;45.658;11.814;2024-02-28T11:49:41;17.40;69.90
61000;SHT31;46879;45.658;11.814;2024-02-28T11:54:44;17.44;69.85
61000;SHT31;46879;45.658;11.814;2024-02-28T11:59:46;17.43;69.81
61000;SHT31;46879;45.658;11.814;2024-02-28T12:04:46;17.43;69.84
61000;SHT31;46879;45.658;11.814;2024-02-28T12:09:50;17.44;69.75
61000;SHT31;46879;45.658;11.814;2024-02-28T12:14:51;17.44;69.79
61000;SHT31;46879;45.658;11.814;2024-02-28T12:19:53;17.44;69.69
61000;SHT31;46879;45.658;11.814;2024-02-28T12:24:53;17.46;69.67
61000;SHT31;46879;45.658;11.814;2024-02-28T12:29:54;17.44;69.68
61000;SHT31;46879;45.658;11.814;2024-02-28T12:34:54;17.44;69.74
61000;SHT31;46879;45.658;11.814;2024-02-28T12:39:55;17.44;69.73
61000;SHT31;46879;45.658;11.814;2024-02-28T12:44:55;17.44;69.70
61000;SHT31;46879;45.658;11.814;2024-02-28T12:49:56;17.46;69.69
61000;SHT31;46879;45.658;11.814;2024-02-28T12:54:56;17.44;69.82
61000;SHT31;46879;45.658;11.814;2024-02-28T12:59:57;17.43;69.82
61000;SHT31;46879;45.658;11.814;2024-02-28T13:04:58;17.44;69.76
61000;SHT31;46879;45.658;11.814;2024-02-28T13:09:59;17.46;69.84
61000;SHT31;46879;45.658;11.814;2024-02-28T13:14:59;17.46;69.79
61000;SHT31;46879;45.658;11.814;2024-02-28T13:20:00;17.47;69.86
61000;SHT31;46879;45.658;11.814;2024-02-28T13:25:01;17.43;69.86
61000;SHT31;46879;45.658;11.814;2024-02-28T13:30:01;17.44;69.98
61000;SHT31;46879;45.658;11.814;2024-02-28T13:35:02;17.47;70.01
61000;SHT31;46879;45.658;11.814;2024-02-28T13:40:03;17.47;70.01
61000;SHT31;46879;45.658;11.814;2024-02-28T13:45:05;17.46;70.00
61000;SHT31;46879;45.658;11.814;2024-02-28T13:50:08;17.46;70.03
61000;SHT31;46879;45.658;11.814;2024-02-28T13:55:10;17.46;70.03
61000;SHT31;46879;45.658;11.814;2024-02-28T14:00:11;17.47;70.04
61000;SHT31;46879;45.658;11.814;2024-02-28T14:05:13;17.46;70.15
61000;SHT31;46879;45.658;11.814;2024-02-28T14:10:15;17.49;70.18
61000;SHT31;46879;45.658;11.814;2024-02-28T14:15:16;17.47;70.22
61000;SHT31;46879;45.658;11.814;2024-02-28T14:20:17;17.50;70.24
61000;SHT31;46879;45.658;11.814;2024-02-28T14:25:18;17.49;70.31
61000;SHT31;46879;45.658;11.814;2024-02-28T14:30:21;17.49;70.38
61000;SHT31;46879;45.658;11.814;2024-02-28T14:35:22;17.51;70.40
61000;SHT31;46879;45.658;11.814;2024-02-28T14:40:23;17.50;70.41
61000;SHT31;46879;45.658;11.814;2024-02-28T14:45:24;17.51;70.43
61000;SHT31;46879;45.658;11.814;2024-02-28T14:50:28;17.50;70.48
61000;SHT31;46879;45.658;11.814;2024-02-28T14:55:29;17.49;70.47
61000;SHT31;46879;45.658;11.814;2024-02-28T15:00:30;17.49;70.46
61000;SHT31;46879;45.658;11.814;2024-02-28T15:05:31;17.50;70.43
61000;SHT31;46879;45.658;11.814;2024-02-28T15:10:31;17.50;70.44
61000;SHT31;46879;45.658;11.814;2024-02-28T15:15:33;17.49;70.50
61000;SHT31;46879;45.658;11.814;2024-02-28T15:20:34;17.49;70.65
61000;SHT31;46879;45.658;11.814;2024-02-28T15:25:34;17.50;70.76
61000;SHT31;46879;45.658;11.814;2024-02-28T15:30:35;17.51;70.78
61000;SHT31;46879;45.658;11.814;2024-02-28T15:35:35;17.49;70.85
61000;SHT31;46879;45.658;11.814;2024-02-28T15:40:36;17.50;70.84
61000;SHT31;46879;45.658;11.814;2024-02-28T15:45:37;17.49;70.97
61000;SHT31;46879;45.658;11.814;2024-02-28T15:50:39;17.51;70.98
61000;SHT31;46879;45.658;11.814;2024-02-28T15:55:40;17.51;70.95
61000;SHT31;46879;45.658;11.814;2024-02-28T16:00:41;17.51;71.00
61000;SHT31;46879;45.658;11.814;2024-02-28T16:05:41;17.49;70.99
61000;SHT31;46879;45.658;11.814;2024-02-28T16:10:42;17.53;70.92
61000;SHT31;46879;45.658;11.814;2024-02-28T16:15:43;17.50;71.02
61000;SHT31;46879;45.658;11.814;2024-02-28T16:20:44;17.51;70.98
61000;SHT31;46879;45.658;11.814;2024-02-28T16:25:44;17.50;71.08
61000;SHT31;46879;45.658;11.814;2024-02-28T16:30:45;17.49;71.06
61000;SHT31;46879;45.658;11.814;2024-02-28T16:35:47;17.50;71.02
61000;SHT31;46879;45.658;11.814;2024-02-28T16:40:47;17.51;71.06
61000;SHT31;46879;45.658;11.814;2024-02-28T16:45:48;17.50;71.09
61000;SHT31;46879;45.658;11.814;2024-02-28T16:50:50;17.50;71.05
61000;SHT31;46879;45.658;11.814;2024-02-28T16:55:50;17.49;71.04
61000;SHT31;46879;45.658;11.814;2024-02-28T17:00:51;17.53;71.09
61000;SHT31;46879;45.658;11.814;2024-02-28T17:05:51;17.51;71.16
61000;SHT31;46879;45.658;11.814;2024-02-28T17:10:52;17.53;71.09
61000;SHT31;46879;45.658;11.814;2024-02-28T17:15:53;17.51;71.18
61000;SHT31;46879;45.658;11.814;2024-02-28T17:20:55;17.51;71.20
61000;SHT31;46879;45.658;11.814;2024-02-28T17:25:57;17.53;71.17
61000;SHT31;46879;45.658;11.814;2024-02-28T17:30:58;17.54;71.20
61000;SHT31;46879;45.658;11.814;2024-02-28T17:35:59;17.53;71.18
61000;SHT31;46879;45.658;11.814;2024-02-28T17:40:59;17.54;71.24
61000;SHT31;46879;45.658;11.814;2024-02-28T17:46:00;17.54;71.29
61000;SHT31;46879;45.658;11.814;2024-02-28T17:51:03;17.54;71.20
61000;SHT31;46879;45.658;11.814;2024-02-28T17:56:04;17.54;71.22
61000;SHT31;46879;45.658;11.814;2024-02-28T18:01:06;17.51;71.25
61000;SHT31;46879;45.658;11.814;2024-02-28T18:06:07;17.54;71.17
61000;SHT31;46879;45.658;11.814;2024-02-28T18:11:08;17.51;71.23
61000;SHT31;46879;45.658;11.814;2024-02-28T18:16:08;17.53;71.11
61000;SHT31;46879;45.658;11.814;2024-02-28T18:21:09;17.54;71.04
61000;SHT31;46879;45.658;11.814;2024-02-28T18:26:10;17.55;71.22
61000;SHT31;46879;45.658;11.814;2024-02-28T18:31:12;17.55;71.49
61000;SHT31;46879;45.658;11.814;2024-02-28T18:36:15;17.54;71.62
61000;SHT31;46879;45.658;11.814;2024-02-28T18:41:16;17.54;71.85
61000;SHT31;46879;45.658;11.814;2024-02-28T18:46:17;17.54;71.85
61000;SHT31;46879;45.658;11.814;2024-02-28T18:51:17;17.54;71.72
61000;SHT31;46879;45.658;11.814;2024-02-28T18:56:18;17.54;71.97
61000;SHT31;46879;45.658;11.814;2024-02-28T19:01:18;17.54;71.87
61000;SHT31;46879;45.658;11.814;2024-02-28T19:06:19;17.54;71.78
61000;SHT31;46879;45.658;11.814;2024-02-28T19:11:21;17.53;71.82
61000;SHT31;46879;45.658;11.814;2024-02-28T19:16:21;17.54;71.72
61000;SHT31;46879;45.658;11.814;2024-02-28T19:21:22;17.53;71.70
61000;SHT31;46879;45.658;11.814;2024-02-28T19:26:23;17.54;71.53
61000;SHT31;46879;45.658;11.814;2024-02-28T19:31:24;17.55;71.74
61000;SHT31;46879;45.658;11.814;2024-02-28T19:36:24;17.54;71.66
61000;SHT31;46879;45.658;11.814;2024-02-28T19:41:25;17.55;71.63
61000;SHT31;46879;45.658;11.814;2024-02-28T19:46:26;17.57;71.55
61000;SHT31;46879;45.658;11.814;2024-02-28T19:51:27;17.55;71.80
61000;SHT31;46879;45.658;11.814;2024-02-28T19:56:27;17.54;71.96
61000;SHT31;46879;45.658;11.814;2024-02-28T20:01:28;17.54;71.99
61000;SHT31;46879;45.658;11.814;2024-02-28T20:06:29;17.53;72.02
61000;SHT31;46879;45.658;11.814;2024-02-28T20:11:29;17.55;72.10
61000;SHT31;46879;45.658;11.814;2024-02-28T20:16:30;17.57;72.11
61000;SHT31;46879;45.658;11.814;2024-02-28T20:21:30;17.55;72.29
61000;SHT31;46879;45.658;11.814;2024-02-28T20:26:31;17.54;72.35
61000;SHT31;46879;45.658;11.814;2024-02-28T20:31:32;17.55;72.27
61000;SHT31;46879;45.658;11.814;2024-02-28T20:36:32;17.55;72.28
61000;SHT31;46879;45.658;11.814;2024-02-28T20:41:35;17.54;72.13
61000;SHT31;46879;45.658;11.814;2024-02-28T20:46:39;17.54;72.14
61000;SHT31;46879;45.658;11.814;2024-02-28T20:51:39;17.55;72.04
61000;SHT31;46879;45.658;11.814;2024-02-28T20:56:40;17.55;71.86
61000;SHT31;46879;45.658;11.814;2024-02-28T21:01:41;17.54;72.03
61000;SHT31;46879;45.658;11.814;2024-02-28T21:06:42;17.53;71.92
61000;SHT31;46879;45.658;11.814;2024-02-28T21:11:42;17.50;71.93
61000;SHT31;46879;45.658;11.814;2024-02-28T21:16:43;17.55;71.89
61000;SHT31;46879;45.658;11.814;2024-02-28T21:21:43;17.54;71.79
61000;SHT31;46879;45.658;11.814;2024-02-28T21:26:44;17.54;71.82
61000;SHT31;46879;45.658;11.814;2024-02-28T21:31:45;17.54;71.73
61000;SHT31;46879;45.658;11.814;2024-02-28T21:36:46;17.55;71.80
61000;SHT31;46879;45.658;11.814;2024-02-28T21:41:48;17.53;71.76
61000;SHT31;46879;45.658;11.814;2024-02-28T21:46:51;17.53;71.75
61000;SHT31;46879;45.658;11.814;2024-02-28T21:51:51;17.54;71.78
61000;SHT31;46879;45.658;11.814;2024-02-28T21:56:52;17.57;71.69
61000;SHT31;46879;45.658;11.814;2024-02-28T22:01:52;17.53;71.71
61000;SHT31;46879;45.658;11.814;2024-02-28T22:06:53;17.55;72.19
61000;SHT31;46879;45.658;11.814;2024-02-28T22:11:54;17.54;72.48
61000;SHT31;46879;45.658;11.814;2024-02-28T22:16:55;17.55;72.68
61000;SHT31;46879;45.658;11.814;2024-02-28T22:21:55;17.55;72.91
61000;SHT31;46879;45.658;11.814;2024-02-28T22:26:56;17.57;73.20
61000;SHT31;46879;45.658;11.814;2024-02-28T22:31:56;17.55;73.36
61000;SHT31;46879;45.658;11.814;2024-02-28T22:36:57;17.59;73.04
61000;SHT31;46879;45.658;11.814;2024-02-28T22:41:57;17.54;73.24
61000;SHT31;46879;45.658;11.814;2024-02-28T22:46:58;17.55;73.34
61000;SHT31;46879;45.658;11.814;2024-02-28T22:51:59;17.54;73.75
61000;SHT31;46879;45.658;11.814;2024-02-28T22:57:00;17.59;73.48
61000;SHT31;46879;45.658;11.814;2024-02-28T23:02:00;17.55;73.69
61000;SHT31;46879;45.658;11.814;2024-02-28T23:07:02;17.55;73.57
61000;SHT31;46879;45.658;11.814;2024-02-28T23:12:03;17.55;73.96
61000;SHT31;46879;45.658;11.814;2024-02-28T23:17:04;17.55;73.92
61000;SHT31;46879;45.658;11.814;2024-02-28T23:22:05;17.55;73.89
61000;SHT31;46879;45.658;11.814;2024-02-28T23:27:08;17.54;73.81
61000;SHT31;46879;45.658;11.814;2024-02-28T23:32:08;17.57;73.97
61000;SHT31;46879;45.658;11.814;2024-02-28T23:37:09;17.55;73.83
61000;SHT31;46879;45.658;11.814;2024-02-28T23:42:09;17.59;74.15
61000;SHT31;46879;45.658;11.814;2024-02-28T23:47:10;17.54;74.18
61000;SHT31;46879;45.658;11.814;2024-02-28T23:52:11;17.55;74.15
61000;SHT31;46879;45.658;11.814;2024-02-28T23:57:11;17.57;74.21
